VABP/BHO METAR and TAF weather

Enter ICAO airport designator
Station Type Date Time Source
VABP METAR 2021/07/26 16:00 UTC NOAA

VABP 261600Z 24012KT 5000 -RA SCT005 BKN018 BKN080 24/24 Q1002 NOSIG


Station Type Date Time Source
VABP Decoded METAR 2021/07/26 16:00 UTC NOAA

Bhopal / Bairagarh, India (VABP) 23-17N 077-21E 523M
Jul 26, 2021 - 12:00 PM EDT / 2021.07.26 1600 UTC
Wind: from the WSW (240 degrees) at 14 MPH (12 KT):0
Visibility: 3 mile(s):0
Sky conditions: mostly cloudy
Weather: light rain
Temperature: 75 F (24 C)
Dew Point: 75 F (24 C)
Relative Humidity: 100%
Pressure (altimeter): 29.59 in. Hg (1002 hPa)
ob: VABP 261600Z 24012KT 5000 -RA SCT005 BKN018 BKN080 24/24 Q1002 NOSIG
cycle: 16

Station Type Date Time Source
VABP TAF 2021/03/31 00:00 UTC NOAA

TAF VABP 302300Z 3100/0106 27010KT 5000 HZ NSC
BECMG 3104/3106 29010G20KT 6000 NSC
BECMG 3115/3117 27010KT 5000 HZ NSC
BECMG 0104/0106 27010G20KT 6000 NSC

Example: see airport list